createdAt,value
2019-02-17T07:02:55.515Z,44.47
2019-02-17T07:04:06.038Z,29.50
2019-02-17T07:05:25.794Z,30.77
2019-02-17T07:06:49.024Z,31.17
2019-02-17T07:07:59.164Z,38.57
2019-02-17T07:09:08.800Z,40.90
2019-02-17T07:10:19.322Z,40.33
2019-02-17T07:11:30.986Z,30.37
2019-02-17T07:12:42.631Z,42.43
2019-02-17T07:13:52.344Z,39.03
2019-02-17T07:15:02.031Z,35.20
2019-02-17T07:16:10.618Z,29.00
2019-02-17T07:17:19.657Z,40.20
2019-02-17T07:18:28.587Z,45.77
2019-02-17T07:19:38.204Z,33.37
2019-02-17T07:20:47.436Z,26.80
2019-02-17T07:21:57.394Z,28.73
2019-02-17T07:23:06.952Z,43.53
2019-02-17T07:24:15.880Z,50.20
2019-02-17T07:25:30.128Z,46.43
2019-02-17T07:26:35.554Z,29.60
2019-02-17T07:27:44.676Z,44.40
2019-02-17T07:28:53.172Z,41.03
2019-02-17T07:30:03.215Z,48.90
2019-02-17T07:31:14.281Z,34.00
2019-02-17T07:32:24.669Z,37.13
2019-02-17T07:33:33.374Z,39.27
2019-02-17T07:34:42.548Z,42.90
2019-02-17T07:35:51.382Z,42.77
2019-02-17T07:36:59.874Z,37.53
2019-02-17T07:38:08.317Z,53.53
2019-02-17T07:39:18.356Z,41.80
2019-02-17T07:40:26.765Z,27.77
2019-02-17T07:41:35.467Z,28.43
2019-02-17T07:42:44.101Z,36.90
2019-02-17T07:43:52.490Z,29.30
2019-02-17T07:45:01.323Z,46.67
2019-02-17T07:46:09.872Z,28.17
2019-02-17T07:47:18.588Z,43.97
2019-02-17T07:48:26.799Z,39.80
2019-02-17T07:49:35.329Z,36.30
2019-02-17T07:50:43.795Z,39.80
2019-02-17T07:51:51.930Z,37.33
2019-02-17T07:53:00.591Z,25.70
2019-02-17T07:54:08.994Z,46.70
2019-02-17T07:55:18.068Z,34.83
2019-02-17T07:56:27.055Z,39.30
2019-02-17T07:57:36.315Z,37.47
2019-02-17T07:58:44.764Z,32.87
2019-02-17T07:59:53.780Z,43.97
2019-02-17T08:01:02.546Z,32.53
2019-02-17T08:02:11.340Z,39.80
2019-02-17T08:03:19.810Z,33.87
2019-02-17T08:04:28.473Z,32.23
2019-02-17T08:05:36.772Z,24.83
2019-02-17T08:06:45.237Z,25.63
2019-02-17T08:07:54.067Z,31.97
2019-02-17T08:09:02.871Z,24.37
2019-02-17T08:10:12.077Z,38.50
2019-02-17T08:11:20.846Z,36.57
2019-02-17T08:12:29.563Z,35.10
2019-02-17T08:13:38.172Z,32.20
2019-02-17T08:14:47.125Z,42.87
2019-02-17T08:15:55.650Z,52.73
2019-02-17T08:17:04.649Z,24.57
2019-02-17T08:18:13.115Z,30.82
2019-02-17T08:19:21.886Z,37.55
2019-02-17T08:20:31.451Z,35.58
2019-02-17T08:21:40.864Z,41.50
2019-02-17T08:22:49.782Z,44.05
2019-02-17T08:23:58.274Z,37.75
2019-02-17T08:25:20.997Z,37.23
2019-02-17T08:26:22.439Z,34.80
2019-02-17T08:27:30.905Z,38.28
2019-02-17T08:28:42.442Z,37.98
2019-02-17T08:29:50.791Z,30.90
2019-02-17T08:30:59.163Z,24.10
2019-02-17T08:32:09.078Z,30.52
2019-02-17T08:33:17.539Z,25.10
2019-02-17T08:34:26.495Z,32.35
2019-02-17T08:35:34.779Z,35.38
2019-02-17T08:36:44.726Z,28.85
2019-02-17T08:37:53.449Z,32.60
2019-02-17T08:39:02.265Z,23.70
2019-02-17T08:40:12.114Z,27.10
2019-02-17T08:41:20.344Z,28.00
2019-02-17T08:42:30.190Z,29.40
2019-02-17T08:43:38.472Z,25.45
2019-02-17T08:44:47.092Z,32.42
2019-02-17T08:45:55.901Z,28.70
2019-02-17T08:47:09.226Z,20.62
2019-02-17T08:48:17.624Z,32.88
2019-02-17T08:49:26.105Z,27.90
2019-02-17T08:50:35.049Z,28.55
2019-02-17T08:51:43.516Z,21.55
2019-02-17T08:52:52.066Z,22.20
2019-02-17T08:54:00.421Z,24.70
2019-02-17T08:55:11.412Z,25.52
2019-02-17T08:56:20.913Z,23.98
2019-02-17T08:57:30.551Z,27.50
2019-02-17T08:58:40.734Z,31.45
2019-02-17T08:59:49.355Z,17.17
2019-02-17T09:00:58.922Z,26.33
2019-02-17T09:02:08.777Z,24.47
2019-02-17T09:03:17.472Z,29.65
2019-02-17T09:04:26.248Z,26.62
2019-02-17T09:05:43.797Z,24.07
2019-02-17T09:06:45.967Z,28.12
2019-02-17T09:07:55.025Z,24.00
2019-02-17T09:09:05.860Z,26.93
2019-02-17T09:10:14.869Z,24.32
2019-02-17T09:11:23.777Z,21.50
2019-02-17T09:12:35.673Z,19.62
2019-02-17T09:13:44.375Z,22.20
2019-02-17T09:14:52.969Z,26.95
2019-02-17T09:16:02.045Z,21.95
2019-02-17T09:17:11.626Z,27.65
2019-02-17T09:18:20.456Z,26.07
2019-02-17T09:19:29.069Z,23.92
2019-02-17T09:20:37.613Z,28.45
2019-02-17T09:21:46.316Z,25.12
2019-02-17T09:22:55.168Z,24.00
2019-02-17T09:24:03.816Z,25.17
2019-02-17T09:25:14.462Z,14.90
2019-02-17T09:26:23.450Z,21.33
2019-02-17T09:27:32.133Z,28.87
2019-02-17T09:28:40.899Z,26.42
2019-02-17T09:29:50.331Z,26.07
2019-02-17T09:30:59.783Z,22.77
2019-02-17T09:32:16.033Z,25.30
2019-02-17T09:33:19.155Z,22.40
2019-02-17T09:34:29.154Z,25.30
2019-02-17T09:35:38.599Z,24.27
2019-02-17T09:36:47.642Z,24.72
2019-02-17T09:37:56.499Z,26.95
2019-02-17T09:39:10.577Z,28.42
2019-02-17T09:40:19.725Z,25.23
2019-02-17T09:41:28.830Z,23.92
2019-02-17T09:42:37.530Z,27.93
2019-02-17T09:43:46.612Z,23.55
2019-02-17T09:44:54.958Z,25.95
2019-02-17T09:46:04.793Z,30.60
2019-02-17T09:47:13.986Z,19.20
2019-02-17T09:48:22.610Z,27.48
2019-02-17T09:49:32.641Z,22.05
2019-02-17T09:50:41.444Z,23.52
2019-02-17T09:51:51.070Z,24.50
2019-02-17T09:53:00.143Z,21.48
2019-02-17T09:54:08.917Z,21.17
2019-02-17T09:55:18.319Z,23.32
2019-02-17T09:56:27.341Z,17.27
2019-02-17T09:57:36.061Z,24.02
2019-02-17T09:58:44.882Z,17.82
2019-02-17T09:59:53.560Z,22.17
2019-02-17T10:01:02.213Z,22.70
2019-02-17T10:02:11.962Z,21.05
2019-02-17T10:03:20.786Z,20.32
2019-02-17T10:04:29.715Z,23.80
2019-02-17T10:05:38.442Z,20.52
2019-02-17T10:06:47.619Z,17.52
2019-02-17T10:07:55.792Z,21.25
2019-02-17T10:09:05.561Z,23.05
2019-02-17T10:10:19.298Z,20.37
2019-02-17T10:11:29.087Z,22.80
2019-02-17T10:12:37.633Z,23.38
2019-02-17T10:13:47.070Z,17.00
2019-02-17T10:14:55.979Z,17.55
2019-02-17T10:16:04.389Z,20.43
2019-02-17T10:17:13.310Z,17.02
2019-02-17T10:18:22.865Z,15.00
2019-02-17T10:19:31.571Z,24.05
2019-02-17T10:20:40.010Z,18.25
2019-02-17T10:21:48.880Z,17.55
2019-02-17T10:22:57.152Z,21.65
2019-02-17T10:24:05.693Z,17.32
2019-02-17T10:25:14.952Z,22.05
2019-02-17T10:26:23.569Z,16.17
2019-02-17T10:27:32.849Z,16.02
2019-02-17T10:28:42.529Z,17.23
2019-02-17T10:29:51.483Z,17.67
2019-02-17T10:31:00.366Z,19.32
2019-02-17T10:32:08.968Z,14.85
2019-02-17T10:33:18.586Z,16.82
2019-02-17T10:34:27.008Z,17.07
2019-02-17T10:35:36.657Z,14.05
2019-02-17T10:36:45.540Z,18.07
2019-02-17T10:37:54.181Z,13.95
2019-02-17T10:39:02.790Z,19.85
2019-02-17T10:40:19.372Z,20.57
2019-02-17T10:41:27.825Z,13.48
2019-02-17T10:42:36.343Z,15.03
2019-02-17T10:43:44.999Z,11.63
2019-02-17T10:44:53.643Z,13.60
2019-02-17T10:46:03.290Z,14.47
2019-02-17T10:47:13.406Z,18.75
2019-02-17T10:48:23.202Z,13.45
2019-02-17T10:49:32.692Z,17.37
2019-02-17T10:50:43.895Z,16.55
2019-02-17T10:51:54.978Z,19.77
2019-02-17T10:53:05.125Z,13.00
2019-02-17T10:54:14.711Z,14.23
2019-02-17T10:55:26.360Z,13.35
2019-02-17T10:56:36.545Z,13.13
2019-02-17T10:57:46.527Z,17.50
2019-02-17T10:58:55.476Z,14.90
2019-02-17T11:00:09.692Z,16.20
2019-02-17T11:01:18.717Z,15.00
2019-02-17T11:02:27.805Z,17.60
2019-02-17T11:03:36.345Z,18.40
2019-02-17T11:04:45.362Z,15.00
2019-02-17T11:05:54.131Z,13.55
2019-02-17T11:07:03.546Z,13.03
2019-02-17T11:08:12.020Z,19.55
2019-02-17T11:09:20.893Z,11.85
2019-02-17T11:10:29.979Z,21.80
2019-02-17T11:11:39.698Z,15.78
2019-02-17T11:12:48.609Z,14.58
2019-02-17T11:13:57.495Z,15.68
2019-02-17T11:15:13.177Z,18.55
2019-02-17T11:16:22.489Z,19.02
2019-02-17T11:17:31.663Z,19.52
2019-02-17T11:18:40.969Z,15.48
2019-02-17T11:19:49.980Z,23.90
2019-02-17T11:20:59.035Z,15.90
2019-02-17T11:22:08.090Z,14.85
2019-02-17T11:23:17.159Z,12.75
2019-02-17T11:24:25.746Z,15.72
2019-02-17T11:25:34.662Z,16.82
2019-02-17T11:26:48.680Z,16.35
2019-02-17T11:28:02.889Z,15.88
2019-02-17T11:29:24.921Z,21.57
2019-02-17T11:30:37.764Z,13.85
2019-02-17T11:31:58.099Z,17.25
2019-02-17T11:33:33.073Z,16.23
2019-02-17T11:35:01.068Z,17.10
2019-02-17T11:36:30.599Z,16.95
2019-02-17T11:37:50.271Z,16.67
2019-02-17T11:39:09.451Z,15.68
2019-02-17T11:40:44.856Z,19.50
2019-02-17T11:42:06.033Z,15.93
2019-02-17T11:43:44.928Z,21.45
2019-02-17T11:45:10.973Z,16.07
2019-02-17T11:46:39.413Z,16.12
2019-02-17T11:47:57.809Z,15.98
2019-02-17T11:49:32.135Z,17.57
2019-02-17T11:50:43.000Z,14.98
2019-02-17T11:51:51.865Z,13.78
2019-02-17T11:53:00.383Z,16.30
2019-02-17T11:54:08.977Z,17.42
2019-02-17T11:55:17.719Z,14.20
2019-02-17T11:56:26.609Z,23.83
2019-02-17T11:57:35.996Z,14.05
2019-02-17T11:58:45.257Z,15.68
2019-02-17T11:59:53.846Z,11.28
2019-02-17T12:01:05.342Z,12.98
2019-02-17T12:02:24.653Z,16.57
2019-02-17T12:03:31.007Z,12.98
2019-02-17T12:04:42.889Z,17.75
2019-02-17T12:05:51.548Z,16.90
2019-02-17T12:07:01.610Z,13.95
2019-02-17T12:08:10.557Z,13.75
2019-02-17T12:09:20.551Z,13.98
2019-02-17T12:10:30.022Z,10.93
2019-02-17T12:11:38.580Z,12.30
2019-02-17T12:12:48.006Z,17.95
2019-02-17T12:13:57.094Z,14.40
2019-02-17T12:15:07.077Z,13.65
2019-02-17T12:16:15.582Z,17.23
2019-02-17T12:17:24.594Z,13.95
2019-02-17T12:18:32.794Z,19.25
2019-02-17T12:19:41.281Z,14.98
2019-02-17T12:20:52.053Z,16.30
2019-02-17T12:22:05.335Z,17.25
2019-02-17T12:23:15.226Z,19.30
2019-02-17T12:24:25.565Z,17.17
2019-02-17T12:25:42.976Z,16.55
2019-02-17T12:26:58.766Z,16.27
2019-02-17T12:28:08.906Z,18.00
2019-02-17T12:29:35.271Z,15.78
2019-02-17T12:30:45.000Z,13.18
2019-02-17T12:31:53.959Z,15.68
2019-02-17T12:33:02.543Z,16.27
2019-02-17T12:34:11.889Z,13.05
2019-02-17T12:35:20.388Z,20.92
2019-02-17T12:36:29.297Z,15.85
2019-02-17T12:37:37.590Z,14.07
2019-02-17T12:38:46.283Z,16.12
2019-02-17T12:39:56.748Z,16.93
2019-02-17T12:41:05.574Z,12.53
2019-02-17T12:42:14.012Z,15.60
2019-02-17T12:43:22.491Z,11.43
2019-02-17T12:44:31.250Z,11.97
2019-02-17T12:45:39.733Z,12.78
2019-02-17T12:46:51.955Z,11.20
2019-02-17T12:48:00.841Z,16.45
2019-02-17T12:49:09.085Z,11.28
2019-02-17T12:50:17.872Z,16.25
2019-02-17T12:51:26.389Z,12.73
2019-02-17T12:52:34.659Z,12.85
2019-02-17T12:53:42.931Z,16.37
2019-02-17T12:54:51.340Z,14.30
2019-02-17T12:55:59.620Z,9.98
2019-02-17T12:57:08.166Z,9.00
2019-02-17T12:58:16.858Z,9.03
2019-02-17T12:59:25.500Z,11.75
2019-02-17T13:00:34.079Z,8.93
2019-02-17T13:01:42.319Z,7.92
2019-02-17T13:02:50.785Z,8.40
2019-02-17T13:03:58.964Z,9.78
2019-02-17T13:05:10.337Z,9.75
2019-02-17T13:06:26.833Z,13.53
2019-02-17T13:07:35.393Z,11.50
2019-02-17T13:09:02.351Z,5.40
2019-02-17T13:10:31.745Z,9.93
2019-02-17T13:12:04.622Z,7.33
2019-02-17T13:13:38.879Z,8.98
2019-02-17T13:15:15.167Z,9.78
2019-02-17T13:16:35.626Z,9.03
2019-02-17T13:18:15.764Z,6.33
2019-02-17T13:19:41.323Z,7.70
2019-02-17T13:21:12.184Z,6.28
2019-02-17T13:22:43.309Z,15.58
2019-02-17T13:24:02.579Z,5.08
2019-02-17T13:25:35.491Z,6.30
2019-02-17T13:27:03.963Z,12.78
2019-02-17T13:28:35.483Z,5.60
2019-02-17T13:29:55.339Z,6.72
2019-02-17T13:31:29.057Z,8.65
2019-02-17T13:32:38.426Z,8.83
2019-02-17T13:33:46.689Z,11.65
2019-02-17T13:34:55.107Z,14.23
2019-02-17T13:36:03.414Z,8.25
2019-02-17T13:37:11.954Z,9.88
2019-02-17T13:38:20.362Z,5.87
2019-02-17T13:39:29.041Z,8.68
2019-02-17T13:40:37.499Z,11.75
2019-02-17T13:41:46.105Z,6.78
2019-02-17T13:42:54.662Z,9.40
2019-02-17T13:44:03.413Z,7.80
2019-02-17T13:45:14.845Z,10.05
2019-02-17T13:46:23.525Z,6.08
2019-02-17T13:47:32.016Z,10.82
2019-02-17T13:48:40.674Z,16.40
2019-02-17T13:49:49.320Z,12.95
2019-02-17T13:50:58.200Z,13.78
2019-02-17T13:52:06.794Z,18.30
2019-02-17T13:53:15.153Z,7.47
2019-02-17T13:54:23.372Z,11.05
2019-02-17T13:55:32.124Z,9.25
2019-02-17T13:56:40.151Z,14.93
2019-02-17T13:57:52.318Z,13.93
2019-02-17T13:59:00.503Z,7.78
2019-02-17T14:00:22.911Z,9.35
2019-02-17T14:01:31.029Z,8.83
2019-02-17T14:02:39.594Z,9.38
2019-02-17T14:03:49.271Z,9.80
2019-02-17T14:04:58.453Z,9.43
2019-02-17T14:06:06.855Z,13.05
2019-02-17T14:07:15.209Z,7.12
2019-02-17T14:08:23.949Z,11.83
2019-02-17T14:09:32.477Z,10.95
2019-02-17T14:10:40.988Z,8.70
2019-02-17T14:11:49.791Z,9.35
2019-02-17T14:12:58.599Z,11.18
2019-02-17T14:14:07.111Z,8.10
2019-02-17T14:15:23.539Z,6.50
2019-02-17T14:16:32.371Z,7.90
2019-02-17T14:17:40.988Z,5.45
2019-02-17T14:18:49.560Z,11.55
2019-02-17T14:19:58.000Z,7.30
2019-02-17T14:21:06.503Z,8.93
2019-02-17T14:22:15.891Z,7.50
2019-02-17T14:23:24.717Z,6.40
2019-02-17T14:24:33.103Z,11.78
2019-02-17T14:25:41.603Z,11.03
2019-02-17T14:26:50.018Z,4.70
2019-02-17T14:27:58.707Z,11.90
2019-02-17T14:29:07.767Z,9.28
2019-02-17T14:30:18.819Z,15.53
2019-02-17T14:31:27.331Z,13.40
2019-02-17T14:32:36.631Z,5.10
2019-02-17T14:33:45.765Z,4.90
2019-02-17T14:34:54.376Z,9.63
2019-02-17T14:36:02.794Z,10.78
2019-02-17T14:37:13.335Z,10.55
2019-02-17T14:38:21.531Z,7.85
2019-02-17T14:39:30.703Z,12.23
2019-02-17T14:40:40.096Z,8.00
2019-02-17T14:41:49.619Z,9.28
2019-02-17T14:42:59.242Z,7.65
2019-02-17T14:44:08.457Z,7.85
2019-02-17T14:45:17.806Z,9.20
2019-02-17T14:46:26.392Z,10.93
2019-02-17T14:47:34.941Z,11.25
2019-02-17T14:48:43.420Z,8.23
2019-02-17T14:49:52.563Z,9.53
2019-02-17T14:51:01.385Z,10.38
2019-02-17T14:52:09.686Z,6.83
2019-02-17T14:53:18.248Z,11.38
2019-02-17T14:54:26.563Z,8.20
2019-02-17T14:55:35.309Z,8.45
2019-02-17T14:56:44.183Z,6.85
2019-02-17T14:57:52.894Z,5.47
2019-02-17T14:59:02.498Z,5.50
2019-02-17T15:00:16.281Z,13.13
2019-02-17T15:01:24.254Z,6.80
2019-02-17T15:02:32.736Z,10.55
2019-02-17T15:03:41.215Z,7.40
2019-02-17T15:04:49.572Z,7.25
2019-02-17T15:05:58.294Z,5.50
2019-02-17T15:07:06.423Z,13.60
2019-02-17T15:08:15.084Z,7.65
2019-02-17T15:09:24.104Z,8.13
2019-02-17T15:10:32.222Z,5.67
2019-02-17T15:11:40.760Z,9.93
2019-02-17T15:12:49.612Z,11.87
2019-02-17T15:13:59.059Z,15.27
2019-02-17T15:15:13.596Z,10.07
2019-02-17T15:16:21.943Z,6.17
2019-02-17T15:17:30.460Z,14.57
2019-02-17T15:18:38.912Z,12.57
2019-02-17T15:19:47.202Z,6.03
2019-02-17T15:20:55.325Z,8.13
2019-02-17T15:22:03.658Z,5.67
2019-02-17T15:23:11.875Z,18.07
2019-02-17T15:24:20.526Z,11.47
2019-02-17T15:25:29.083Z,13.23
2019-02-17T15:26:38.038Z,10.27
2019-02-17T15:27:46.955Z,6.90
2019-02-17T15:28:55.321Z,3.40
2019-02-17T15:30:05.094Z,7.07
2019-02-17T15:31:14.421Z,15.40
2019-02-17T15:32:23.540Z,7.30
2019-02-17T15:33:32.050Z,13.53
2019-02-17T15:34:40.924Z,8.37
2019-02-17T15:35:49.281Z,9.70
2019-02-17T15:36:57.974Z,9.97
2019-02-17T15:38:06.631Z,10.23
2019-02-17T15:39:15.468Z,8.37
2019-02-17T15:40:24.989Z,13.47
2019-02-17T15:41:33.031Z,10.70
2019-02-17T15:42:43.267Z,10.07
2019-02-17T15:43:51.788Z,8.43
2019-02-17T15:45:00.685Z,8.13
2019-02-17T15:46:09.304Z,9.37
2019-02-17T15:47:17.606Z,15.37
2019-02-17T15:48:26.109Z,9.50
2019-02-17T15:49:34.647Z,15.20
2019-02-17T15:50:43.054Z,13.73
2019-02-17T15:51:51.737Z,12.60
2019-02-17T15:53:00.889Z,9.83
2019-02-17T15:54:09.296Z,18.90
2019-02-17T15:55:18.182Z,8.27
2019-02-17T15:56:26.365Z,14.93
2019-02-17T15:57:34.743Z,12.77
2019-02-17T15:58:44.978Z,7.93
2019-02-17T15:59:54.066Z,10.43
2019-02-17T16:01:03.127Z,13.20
2019-02-17T16:02:11.325Z,12.43
2019-02-17T16:03:19.777Z,7.00
2019-02-17T16:04:28.920Z,11.90
2019-02-17T16:05:37.632Z,19.30
2019-02-17T16:06:46.220Z,12.93
2019-02-17T16:07:54.817Z,9.67
2019-02-17T16:09:03.923Z,16.93
2019-02-17T16:10:14.523Z,11.10
2019-02-17T16:11:23.279Z,10.10
2019-02-17T16:12:32.573Z,9.60
2019-02-17T16:13:42.206Z,15.70
2019-02-17T16:14:51.738Z,14.73
2019-02-17T16:16:00.856Z,9.60
2019-02-17T16:17:09.802Z,20.07
2019-02-17T16:18:18.771Z,14.13
2019-02-17T16:19:27.619Z,10.57
2019-02-17T16:20:36.080Z,13.83
2019-02-17T16:21:44.991Z,14.30
2019-02-17T16:22:54.739Z,6.90
2019-02-17T16:24:03.818Z,14.53
2019-02-17T16:25:13.731Z,12.93
2019-02-17T16:26:22.094Z,12.53
2019-02-17T16:27:30.704Z,13.40
2019-02-17T16:28:40.634Z,13.67
2019-02-17T16:29:49.109Z,11.70
2019-02-17T16:30:58.198Z,11.97
2019-02-17T16:32:07.216Z,9.90
2019-02-17T16:33:16.150Z,18.73
2019-02-17T16:34:24.481Z,14.40
2019-02-17T16:35:33.113Z,13.27
2019-02-17T16:36:41.139Z,15.83
2019-02-17T16:37:49.710Z,16.20
2019-02-17T16:38:58.143Z,13.23
2019-02-17T16:40:15.228Z,15.47
2019-02-17T16:41:24.273Z,8.63
2019-02-17T16:42:33.079Z,12.00
2019-02-17T16:43:41.775Z,15.57
2019-02-17T16:44:50.592Z,17.50
2019-02-17T16:45:58.917Z,17.10
2019-02-17T16:47:07.783Z,13.13
2019-02-17T16:48:16.687Z,9.23
2019-02-17T16:49:28.014Z,13.07
2019-02-17T16:50:36.527Z,11.33
2019-02-17T16:51:45.541Z,21.57
2019-02-17T16:53:52.004Z,12.37
2019-02-17T16:55:06.351Z,15.77
2019-02-17T16:56:23.937Z,9.60
2019-02-17T16:58:04.968Z,8.77
2019-02-17T16:59:28.085Z,18.27
2019-02-17T17:01:01.223Z,20.80
2019-02-17T17:02:19.962Z,10.73
2019-02-17T17:03:51.773Z,10.90
2019-02-17T17:05:05.462Z,19.87
2019-02-17T17:06:45.892Z,29.70
2019-02-17T17:08:09.891Z,18.60
2019-02-17T17:09:40.740Z,19.47
2019-02-17T17:11:05.642Z,19.03
2019-02-17T17:12:38.284Z,18.20
2019-02-17T17:13:56.949Z,22.43
2019-02-17T17:15:20.190Z,14.87
2019-02-17T17:16:54.363Z,19.23
2019-02-17T17:18:11.793Z,21.10
2019-02-17T17:19:38.074Z,16.87
2019-02-17T17:21:13.908Z,30.33
2019-02-17T17:22:32.788Z,27.53
2019-02-17T17:24:00.675Z,16.43
2019-02-17T17:25:32.661Z,25.93
2019-02-17T17:27:03.731Z,22.70
2019-02-17T17:28:11.467Z,28.63
2019-02-17T17:29:21.071Z,27.00
2019-02-17T17:30:30.115Z,25.63
2019-02-17T17:31:39.264Z,39.23
2019-02-17T17:32:49.048Z,25.13
2019-02-17T17:33:58.011Z,20.13
2019-02-17T17:35:09.592Z,29.13
2019-02-17T17:36:19.073Z,19.90
2019-02-17T17:37:28.339Z,19.33
2019-02-17T17:38:36.882Z,22.50
2019-02-17T17:39:47.887Z,27.57
2019-02-17T17:40:56.637Z,23.73
2019-02-17T17:42:05.274Z,19.37
2019-02-17T17:43:14.293Z,25.83
2019-02-17T17:44:24.670Z,26.87
2019-02-17T17:45:33.822Z,29.50
2019-02-17T17:46:47.065Z,24.60
2019-02-17T17:47:55.546Z,22.50
2019-02-17T17:49:04.171Z,24.10
2019-02-17T17:50:15.286Z,25.37
2019-02-17T17:51:24.043Z,24.53
2019-02-17T17:52:32.791Z,22.87
2019-02-17T17:53:41.301Z,23.30
2019-02-17T17:54:50.738Z,21.60
2019-02-17T17:56:00.222Z,35.47
2019-02-17T17:57:09.326Z,35.63
2019-02-17T17:58:17.737Z,30.57
2019-02-17T17:59:26.043Z,27.20
2019-02-17T18:00:37.667Z,35.47
2019-02-17T18:01:46.536Z,35.03
2019-02-17T18:02:56.782Z,19.10
2019-02-17T18:04:07.013Z,35.80
2019-02-17T18:05:15.688Z,27.00
2019-02-17T18:06:24.661Z,32.77
2019-02-17T18:07:33.343Z,22.17
2019-02-17T18:08:42.192Z,26.33
2019-02-17T18:09:51.560Z,36.90
2019-02-17T18:11:00.653Z,39.20
2019-02-17T18:12:09.693Z,29.13
2019-02-17T18:13:18.784Z,31.20
2019-02-17T18:14:28.214Z,30.77
2019-02-17T18:15:36.997Z,30.80
2019-02-17T18:16:46.523Z,27.60
2019-02-17T18:17:55.296Z,34.07
2019-02-17T18:19:04.697Z,26.73
2019-02-17T18:20:14.809Z,31.50
2019-02-17T18:21:23.659Z,23.77
2019-02-17T18:22:32.150Z,24.23
2019-02-17T18:23:41.423Z,31.67
2019-02-17T18:24:50.843Z,32.50
2019-02-17T18:25:59.907Z,22.60
2019-02-17T18:27:08.784Z,29.63
2019-02-17T18:28:17.309Z,27.33
2019-02-17T18:29:26.327Z,38.27
2019-02-17T18:30:34.997Z,26.83
2019-02-17T18:31:44.219Z,33.67
2019-02-17T18:32:53.799Z,33.50
2019-02-17T18:34:03.083Z,31.43
2019-02-17T18:35:19.939Z,35.93
2019-02-17T18:36:22.806Z,27.30
2019-02-17T18:37:31.486Z,39.23
2019-02-17T18:38:40.135Z,29.47
2019-02-17T18:39:48.806Z,42.47
2019-02-17T18:40:57.413Z,38.27
2019-02-17T18:42:06.406Z,36.63
2019-02-17T18:43:15.468Z,39.23
2019-02-17T18:44:24.246Z,43.40
2019-02-17T18:45:33.226Z,47.20
2019-02-17T18:46:43.390Z,53.60
2019-02-17T18:47:52.895Z,50.87
2019-02-17T18:49:02.259Z,28.60
2019-02-17T18:50:14.407Z,35.67
2019-02-17T18:51:23.470Z,37.53
2019-02-17T18:52:32.352Z,35.30
2019-02-17T18:53:41.369Z,48.70
2019-02-17T18:54:51.177Z,48.40
2019-02-17T18:55:59.858Z,35.73
2019-02-17T18:57:09.006Z,27.60
2019-02-17T18:58:17.749Z,50.90
2019-02-17T18:59:28.311Z,43.97
2019-02-17T19:00:37.460Z,36.23
2019-02-17T19:01:47.089Z,37.73
2019-02-17T19:02:55.996Z,36.30
2019-02-17T19:04:04.821Z,33.50
2019-02-17T19:05:14.338Z,47.70
2019-02-17T19:06:23.703Z,29.87
2019-02-17T19:07:32.794Z,35.67
2019-02-17T19:08:41.469Z,41.03
2019-02-17T19:09:50.836Z,40.33
2019-02-17T19:11:00.182Z,41.20
2019-02-17T19:12:09.377Z,38.13
2019-02-17T19:13:18.927Z,36.23
2019-02-17T19:14:27.985Z,38.37
2019-02-17T19:15:36.511Z,28.40
2019-02-17T19:16:45.337Z,42.57
2019-02-17T19:17:55.172Z,40.77
2019-02-17T19:19:04.111Z,37.27
2019-02-17T19:20:28.758Z,42.10
2019-02-17T19:21:38.154Z,33.13
2019-02-17T19:22:46.343Z,35.63
2019-02-17T19:23:55.496Z,32.23
2019-02-17T19:25:05.379Z,40.93
2019-02-17T19:26:15.689Z,44.60
2019-02-17T19:27:25.826Z,31.13
2019-02-17T19:28:34.884Z,34.77
2019-02-17T19:29:43.176Z,45.63
2019-02-17T19:30:51.681Z,41.27
2019-02-17T19:32:00.803Z,32.57
2019-02-17T19:33:09.303Z,33.30
2019-02-17T19:34:18.055Z,40.07
2019-02-17T19:35:26.416Z,44.80
2019-02-17T19:36:34.965Z,40.27
2019-02-17T19:37:43.408Z,45.50
2019-02-17T19:38:52.008Z,39.03
2019-02-17T19:40:00.690Z,44.50
2019-02-17T19:41:09.087Z,47.57
2019-02-17T19:42:17.456Z,39.43
2019-02-17T19:43:25.728Z,41.87
2019-02-17T19:44:34.284Z,37.83
2019-02-17T19:45:42.850Z,63.40
2019-02-17T19:46:51.757Z,40.40
2019-02-17T19:48:00.398Z,47.73
2019-02-17T19:49:09.599Z,67.57
2019-02-17T19:50:19.301Z,52.57
2019-02-17T19:51:27.856Z,49.30
2019-02-17T19:52:36.127Z,61.20
2019-02-17T19:53:44.633Z,50.73
2019-02-17T19:54:53.464Z,50.17
2019-02-17T19:56:02.553Z,54.40
2019-02-17T19:57:11.074Z,52.70
2019-02-17T19:58:19.206Z,47.83
2019-02-17T19:59:27.584Z,43.03
2019-02-17T20:00:36.591Z,50.73
2019-02-17T20:01:45.778Z,40.13
2019-02-17T20:02:56.124Z,43.23
2019-02-17T20:04:21.833Z,49.67
2019-02-17T20:05:51.597Z,53.47
2019-02-17T20:06:55.696Z,53.10
2019-02-17T20:08:04.117Z,53.30
2019-02-17T20:09:15.578Z,42.77
2019-02-17T20:10:24.789Z,50.97
2019-02-17T20:11:33.760Z,57.40
2019-02-17T20:12:42.617Z,55.73
2019-02-17T20:13:51.587Z,52.87
2019-02-17T20:15:00.557Z,58.77
2019-02-17T20:16:09.338Z,46.90
2019-02-17T20:17:18.557Z,52.73
2019-02-17T20:18:26.867Z,53.83
2019-02-17T20:19:35.547Z,49.53
2019-02-17T20:20:43.943Z,63.27
2019-02-17T20:21:53.387Z,48.47
2019-02-17T20:23:03.081Z,37.83
2019-02-17T20:24:11.440Z,48.67
2019-02-17T20:25:20.248Z,60.80
2019-02-17T20:26:29.654Z,61.40
2019-02-17T20:27:38.806Z,73.67
2019-02-17T20:28:47.197Z,70.97
2019-02-17T20:29:55.963Z,61.07
2019-02-17T20:31:06.711Z,59.23
2019-02-17T20:32:15.198Z,88.40
2019-02-17T20:33:23.685Z,52.73
2019-02-17T20:34:32.710Z,65.10
2019-02-17T20:35:42.691Z,57.73
2019-02-17T20:36:52.248Z,55.50
2019-02-17T20:38:01.127Z,72.40
2019-02-17T20:39:09.722Z,66.13
2019-02-17T20:40:19.642Z,49.87
2019-02-17T20:41:28.670Z,67.53
2019-02-17T20:42:38.298Z,45.93
2019-02-17T20:43:46.853Z,69.13
2019-02-17T20:44:55.399Z,62.80
2019-02-17T20:46:03.960Z,56.37
2019-02-17T20:47:12.323Z,62.23
2019-02-17T20:48:22.054Z,51.00
2019-02-17T20:49:31.508Z,84.93
2019-02-17T20:50:39.964Z,52.10
2019-02-17T20:51:48.494Z,63.37
2019-02-17T20:52:57.442Z,50.87
2019-02-17T20:54:06.754Z,61.60
2019-02-17T20:55:16.285Z,55.13
2019-02-17T20:56:25.057Z,73.03
2019-02-17T20:57:33.490Z,62.50
2019-02-17T20:58:41.978Z,66.17
2019-02-17T20:59:52.658Z,50.33
2019-02-17T21:01:01.469Z,67.47
2019-02-17T21:02:09.992Z,65.13
2019-02-17T21:03:18.964Z,64.47
2019-02-17T21:04:27.782Z,73.67
2019-02-17T21:05:36.214Z,57.03
2019-02-17T21:06:48.066Z,65.00
2019-02-17T21:07:58.733Z,40.13
2019-02-17T21:09:08.883Z,62.50
2019-02-17T21:10:17.639Z,65.03
2019-02-17T21:11:26.492Z,57.90
2019-02-17T21:12:35.408Z,67.30
2019-02-17T21:13:44.822Z,84.60
2019-02-17T21:14:54.383Z,76.40
2019-02-17T21:16:03.418Z,70.87
2019-02-17T21:17:12.481Z,60.37
2019-02-17T21:18:22.797Z,49.57
2019-02-17T21:19:33.412Z,67.60
2019-02-17T21:20:42.332Z,62.73
2019-02-17T21:21:50.680Z,68.57
2019-02-17T21:22:59.975Z,71.60
2019-02-17T21:24:09.537Z,65.90
2019-02-17T21:25:18.116Z,67.87
2019-02-17T21:26:26.890Z,62.13
2019-02-17T21:27:35.141Z,59.33
2019-02-17T21:28:43.741Z,55.17
2019-02-17T21:29:52.096Z,55.37
2019-02-17T21:31:01.200Z,59.60
2019-02-17T21:32:09.435Z,55.90
2019-02-17T21:33:18.029Z,60.17
2019-02-17T21:34:26.959Z,54.87
2019-02-17T21:35:35.207Z,80.27
2019-02-17T21:36:43.694Z,63.50
2019-02-17T21:37:52.146Z,60.10
2019-02-17T21:39:00.678Z,55.97
2019-02-17T21:40:11.974Z,64.87
2019-02-17T21:41:20.515Z,45.80
2019-02-17T21:42:29.611Z,58.80
2019-02-17T21:43:38.078Z,63.23
2019-02-17T21:44:46.465Z,53.00
2019-02-17T21:45:55.298Z,66.87
2019-02-17T21:47:04.145Z,57.17
2019-02-17T21:48:12.524Z,66.50
2019-02-17T21:49:20.927Z,59.83
2019-02-17T21:50:29.354Z,50.50
2019-02-17T21:51:37.959Z,66.40
2019-02-17T21:52:47.018Z,54.10
2019-02-17T21:53:55.227Z,52.73
2019-02-17T21:55:03.800Z,66.13
2019-02-17T21:56:11.960Z,54.50
2019-02-17T21:57:22.544Z,52.60
2019-02-17T21:58:30.984Z,69.30
2019-02-17T21:59:40.049Z,55.70
2019-02-17T22:00:48.605Z,49.80
2019-02-17T22:01:57.317Z,53.20
2019-02-17T22:03:05.681Z,56.27
2019-02-17T22:04:14.675Z,45.73
2019-02-17T22:05:23.245Z,64.17
2019-02-17T22:06:33.735Z,49.20
2019-02-17T22:07:41.865Z,65.40
2019-02-17T22:08:50.723Z,47.87
2019-02-17T22:10:00.794Z,64.53
2019-02-17T22:11:09.122Z,67.00
2019-02-17T22:12:17.774Z,65.07
2019-02-17T22:13:26.390Z,56.00
2019-02-17T22:14:36.295Z,63.47
2019-02-17T22:15:45.052Z,69.73
2019-02-17T22:16:53.452Z,63.13